CMB851 Details

Departure: Paya Lebar Airport (WSAP)
Arrival: Yokota AFB (RJTY) at N/A
Route: TOMAN L625 MEVIN B462 KAZIK Y59 AZAMA Y57 BUNGU XAC
Notes: USTRANSCOM CONTRACT FLIGHT


Current Weather Information
WSAP 251000Z 20006KT 9999 FEW020 SCT160 BKN300 31/24 Q1008
RJTY 251056Z AUTO 19005KT 10SM BKN100 25/20 A2989 RMK AO2 SLP118 T02470202 FZRANO $